Terminal Aerodrome Forecast
Issued by NWS

Home | Current Version | Previous Version | Text Only | Print | Product List | Glossary On
Versions: 1 2 3 4 5 6 7 8 9 10 11 12 13 14 15 16 17 18 19
591
FTAK31 PAJN 101139
TAFAWG
TAF
PAWG 101139Z 1012/1112 12005KT P6SM VCSH FEW040 BKN050 OVC060
      WS020/13025KT
     FM102300 09010KT P6SM -RA SCT010 SCT025 OVC040 WS020/14030KT
     FM110100 13010G18KT 5SM -RA BR SCT020 OVC030 WS020/14030KT
     FM110600 14010KT P6SM VCSH OVC040 WS020/15030KT
      AMD LTD TO CLD VIS AND WIND 1012/1015=

USA.gov is the U.S. government's official web portal to all federal, state and local government web resources and services.